Flight Track Log - Related Links

Times and Time Zones

All times are in EDT time to prevent confusion due to time zone crossing. See the EJA695 flight status page for this flight to view local times or setup timezone preferences in your user account.

Time Position Orientation Groundspeed Altitude Reporting Facility
EDT Latitude Longitude Course Direction KTS MPH feet Rate Location/Type
Mon 09:21:30 26.1797 -81.6392 North 262 302 6,500  Level Miami Center
Mon 09:22:30 26.2544 -81.6492 353° North 271 312 9,000 2,350 Climbing Miami Center
Mon 09:23:30 26.3314 -81.6592 353° North 276 318 11,200 2,100 Climbing Miami Center
Mon 09:24:30 26.4167 -81.6697 354° North 288 331 13,200 1,400 Climbing Miami Center
Mon 09:25:00 26.8119 -81.7500 North  Level FlightAware Approximate
Mon 09:25:30 26.4978 -81.6800 354° North 305 351 14,000  Level Miami Center
Mon 09:26:00 26.9216 -81.7350 North  Level FlightAware Approximate
Mon 09:26:30 26.5956 -81.6933 353° North 333 383 14,000  Level Miami Center
Mon 09:27:30 26.6972 -81.7067 353° North 351 404 14,300 1,200 Climbing Miami Center
Mon 09:28:30 26.7931 -81.7178 354° North 356 410 16,400 1,750 Climbing Miami Center
Mon 09:29:30 26.8969 -81.7314 353° North 346 398 17,800 1,800 Climbing Miami Center
Mon 09:30:30 26.9761 -81.7392 355° North 334 384 20,000 2,100 Climbing Miami Center
Mon 09:31:30 27.0711 -81.7619 348° North 327 376 22,000 1,700 Climbing Miami Center
Mon 09:32:30 27.1622 -81.7914 344° North 327 376 23,400 1,400 Climbing Miami Center
Mon 09:33:30 27.2550 -81.8211 344° North 340 391 24,800 1,350 Climbing Miami Center
Mon 09:34:30 27.3394 -81.8506 343° North 340 391 26,100 1,350 Climbing Miami Center
Mon 09:35:30 27.4333 -81.8569 357° North 340 391 27,500 1,550 Climbing Miami Center
Mon 09:36:30 27.5308 -81.8119 22° Northeast 331 381 29,200 1,267 Climbing Miami Center
Mon 09:38:30 27.7153 -81.7261 22° Northeast 354 407 31,300 1,033 Climbing Miami Center
Mon 09:39:30 27.8000 -81.6875 22° Northeast 359 413 32,300 950 Climbing Miami Center
Mon 09:40:30 27.9039 -81.6403 22° Northeast 359 413 33,200 850 Climbing Miami Center
Mon 09:41:30 28.0014 -81.5928 23° Northeast 365 420 34,000 500 Climbing Miami Center
Mon 09:42:30 28.1053 -81.5475 21° North 379 436 34,200 700 Climbing Miami Center
Mon 09:44:00 28.2418 -81.4541 24° Northeast  Level FlightAware Approximate
Mon 09:44:30 28.3119 -81.4783 24° Northeast 389 448 36,100  Level Miami Center
Mon 09:45:42 28.4447 -81.4808 359° North 387 445 37,300 864 Climbing Jacksonville Center
Mon 09:46:42 28.5533 -81.4839 359° North 387 445 38,000 750 Climbing Jacksonville Center
Mon 09:47:42 28.6619 -81.4847 360° North 382 440 38,800 800 Climbing Jacksonville Center
Mon 09:48:42 28.7683 -81.4856 360° North 382 440 39,600 700 Climbing Jacksonville Center
Mon 09:49:42 28.8769 -81.4889 358° North 382 440 40,200 550 Climbing Jacksonville Center
Mon 09:50:42 28.9853 -81.4872 North 382 440 40,700 400 Climbing Jacksonville Center
Mon 09:51:42 29.0961 -81.4906 358° North 382 440 41,000 150 Climbing Jacksonville Center
Mon 09:52:42 29.2089 -81.4936 359° North 387 445 41,000  Level Jacksonville Center
Mon 09:53:42 29.3194 -81.4969 358° North 387 445 41,000  Level Jacksonville Center
Mon 09:54:42 29.4342 -81.4978 360° North 392 451 41,000  Level Jacksonville Center
Mon 09:55:42 29.5492 -81.4983 360° North 403 464 41,000  Level Jacksonville Center
Mon 09:56:42 29.6661 -81.4992 360° North 403 464 41,000  Level Jacksonville Center
Mon 09:57:42 29.7808 -81.5022 359° North 408 470 41,000  Level Jacksonville Center
Mon 09:58:42 29.8978 -81.5053 359° North 408 470 41,000  Level Jacksonville Center
Mon 09:59:42 30.0042 -81.5039 North 413 475 41,000  Level Jacksonville Center
Mon 10:00:42 30.1211 -81.5069 359° North 413 475 41,000  Level Jacksonville Center
Mon 10:01:42 30.2403 -81.5053 North 419 482 41,000  Level Jacksonville Center
Mon 10:02:42 30.3572 -81.5058 360° North 419 482 41,000  Level Jacksonville Center
Mon 10:03:42 30.4739 -81.4969 North 419 482 41,000  Level Jacksonville Center
Mon 10:04:42 30.5928 -81.4906 North 419 482 41,000  Level Jacksonville Center
Mon 10:05:42 30.7117 -81.4814 North 419 482 41,000  Level Jacksonville Center
Mon 10:06:42 30.8286 -81.4725 North 419 482 41,000  Level Jacksonville Center
Mon 10:07:42 30.9453 -81.4514 North 419 482 41,000  Level Jacksonville Center
Mon 10:08:42 31.0533 -81.3964 24° Northeast 419 482 41,000  Level Jacksonville Center
Mon 10:09:42 31.1592 -81.3414 24° Northeast 414 476 41,000  Level Jacksonville Center
Mon 10:10:42 31.2669 -81.2883 23° Northeast 414 476 41,000  Level Jacksonville Center
Mon 10:11:42 31.3831 -81.2231 26° Northeast 414 476 41,000  Level Jacksonville Center
Mon 10:12:42 31.4889 -81.1678 24° Northeast 419 482 41,000  Level Jacksonville Center
Mon 10:13:42 31.5883 -81.1194 22° Northeast 419 482 41,000  Level Jacksonville Center
Mon 10:14:42 31.7064 -81.0561 25° Northeast 419 482 41,000  Level Jacksonville Center
Mon 10:15:42 31.8039 -81.0053 24° Northeast 414 476 41,000  Level Jacksonville Center
Mon 10:16:42 31.9219 -80.9442 24° Northeast 414 476 41,000  Level Jacksonville Center
Mon 10:17:42 32.0317 -80.8856 24° Northeast 419 482 41,000  Level Jacksonville Center
Mon 10:18:42 32.1311 -80.8367 23° Northeast 419 482 41,000  Level Jacksonville Center
Mon 10:19:42 32.2511 -80.7750 23° Northeast 419 482 41,000  Level Jacksonville Center
Mon 10:20:42 32.3464 -80.7236 24° Northeast 414 476 41,000  Level Jacksonville Center
Mon 10:21:42 32.4539 -80.6669 24° Northeast 414 476 41,000  Level Jacksonville Center
Mon 10:22:42 32.5656 -80.6100 23° Northeast 419 482 41,000  Level Jacksonville Center
Mon 10:23:42 32.6731 -80.5531 24° Northeast 419 482 41,000  Level Jacksonville Center
Mon 10:24:42 32.7828 -80.4958 24° Northeast 419 482 41,000  Level Jacksonville Center
Mon 10:25:42 32.8881 -80.4386 25° Northeast 414 476 41,000  Level Jacksonville Center
Mon 10:26:42 33.0139 -80.3708 24° Northeast 428 493 41,000  Level Jacksonville Center
Mon 10:27:42 33.1256 -80.3131 23° Northeast 442 509 41,000  Level Jacksonville Center
Mon 10:28:42 33.2269 -80.2656 21° North 432 497 41,000  Level Jacksonville Center
Mon 10:29:42 33.3297 -80.2028 27° Northeast 432 497 41,000  Level Jacksonville Center
Mon 10:30:42 33.4392 -80.1447 24° Northeast 426 490 41,000  Level Jacksonville Center
Mon 10:31:42 33.5567 -80.0811 24° Northeast 426 490 41,000  Level Jacksonville Center
Mon 10:32:42 33.6639 -80.0228 24° Northeast 421 484 41,000  Level Jacksonville Center
Mon 10:33:42 33.7731 -79.9619 25° Northeast 421 484 41,000  Level Jacksonville Center
Mon 10:34:42 33.8825 -79.9033 24° Northeast 416 479 41,000  Level Jacksonville Center
Mon 10:35:42 33.9894 -79.8444 25° Northeast 416 479 41,000  Level Jacksonville Center
Mon 10:36:42 34.0986 -79.7831 25° Northeast 416 479 41,000  Level Jacksonville Center
Mon 10:37:42 34.2078 -79.7264 23° Northeast 416 479 41,000  Level Jacksonville Center
Mon 10:38:42 34.3003 -79.6703 27° Northeast 416 479 41,000  Level Jacksonville Center
Mon 10:39:42 34.4092 -79.6083 25° Northeast 416 479 41,000  Level Jacksonville Center
Mon 10:40:42 34.5181 -79.5511 23° Northeast 421 484 41,000  Level Jacksonville Center
Mon 10:41:48 34.6447 -79.4797 25° Northeast 412 474 41,000 -238 Level Washington Center
Mon 10:42:48 34.7511 -79.4217 24° Northeast 412 474 40,500 -1,008 Descending Washington Center
Mon 10:43:47 34.8614 -79.3608 24° Northeast 412 474 39,000 -1,350 Descending Washington Center
Mon 10:44:48 34.9550 -79.3094 24° Northeast 412 474 37,800 -1,311 Descending Washington Center
Mon 10:45:46 35.0611 -79.2483 25° Northeast 412 474 36,400 -1,462 Descending Washington Center
Mon 10:46:47 35.1714 -79.1875 24° Northeast 412 474 34,900 -1,488 Descending Washington Center
Mon 10:47:47 35.2817 -79.1261 24° Northeast 422 486 33,400 -1,488 Descending Washington Center
Mon 10:48:48 35.3942 -79.0622 25° Northeast 433 498 31,900 -1,438 Descending Washington Center
Mon 10:49:48 35.5067 -78.9983 25° Northeast 433 498 30,500 -1,780 Descending Washington Center
Mon 10:50:46 35.6192 -78.9342 25° Northeast 433 498 28,400 -1,271 Descending Washington Center
Mon 10:51:46 35.7336 -78.8697 25° Northeast 433 498 28,000 -198 Descending Washington Center
Mon 10:52:47 35.8417 -78.8078 25° Northeast 428 493 28,000  Level Washington Center
Mon 10:53:48 35.9497 -78.7453 25° Northeast 428 493 28,000 -454 Level Washington Center
Mon 10:54:46 36.0578 -78.6828 25° Northeast 428 493 27,100 -508 Descending Washington Center
Mon 10:55:46 36.1722 -78.6178 25° Northeast 428 493 27,000 -49 Descending Washington Center
Mon 10:56:48 36.2844 -78.5528 25° Northeast 433 498 27,000  Level Washington Center
Mon 10:57:48 36.3944 -78.4897 25° Northeast 433 498 27,000  Level Washington Center
Mon 10:58:46 36.5044 -78.4267 25° Northeast 433 498 27,000 -864 Level Washington Center
Mon 10:59:46 36.6186 -78.3636 24° Northeast 428 493 25,300 -1,759 Descending Washington Center
Mon 11:00:59 36.7411 -78.2875 26° Northeast 434 499 23,100 -1,489 Descending Washington Center
Mon 11:01:59 36.8722 -78.2117 25° Northeast 434 499 22,000 -541 Descending Washington Center
Mon 11:03:01 36.9800 -78.1503 24° Northeast 428 493 22,000  Level Washington Center
Mon 11:03:58 37.0836 -78.0886 25° Northeast 423 487 22,000  Level Washington Center
Mon 11:04:59 37.1892 -78.0269 25° Northeast 418 481 22,000  Level Washington Center
Mon 11:06:00 37.2944 -77.9675 24° Northeast 412 474 22,000  Level Washington Center
Mon 11:07:00 37.4000 -77.9056 25° Northeast 412 474 22,000  Level Washington Center
Mon 11:08:00 37.5036 -77.8431 26° Northeast 406 467 22,000  Level Washington Center
Mon 11:08:58 37.6111 -77.7783 25° Northeast 406 467 22,000 -1,059 Level Washington Center
Mon 11:09:59 37.7164 -77.7156 25° Northeast 406 467 19,900 -2,115 Descending Washington Center
Mon 11:11:00 37.8217 -77.6581 23° Northeast 406 467 17,700 -2,150 Descending Washington Center
Mon 11:11:59 37.9208 -77.6003 25° Northeast 401 461 15,600 -2,118 Descending Washington Center
Mon 11:12:59 38.0197 -77.5397 26° Northeast 395 455 13,500 -2,000 Descending Washington Center
Mon 11:13:59 38.1125 -77.4892 23° Northeast 380 437 11,600 -1,736 Descending Washington Center
Mon 11:15:00 38.1986 -77.4386 25° Northeast 355 409 10,000 -1,462 Descending Washington Center
Mon 11:15:58 38.2767 -77.3903 26° Northeast 324 373 8,700 -1,160 Descending Washington Center
Mon 11:16:59 38.3564 -77.3550 19° North 309 356 7,700 -992 Descending Washington Center
Mon 11:17:59 38.4375 -77.3597 357° North 294 338 6,700 -992 Descending Washington Center
Mon 11:19:00 38.5208 -77.3642 358° North 294 338 5,700 -857 Descending Washington Center
Mon 11:19:58 38.6000 -77.3661 359° North 289 333 5,000 -356 Descending Washington Center
Mon 11:20:58 38.6814 -77.3628 North 289 333 5,000 -429 Level Washington Center
Mon 11:22:04 38.7667 -77.3500 North 287 330 4,100 -476 Descending Potomac TRACON
Mon 11:23:04 38.8500 -77.3500 360° North 281 323 4,000 -50 Descending Potomac TRACON
Mon 11:24:04 38.9333 -77.3500 360° North 280 322 4,000  Level Potomac TRACON
Mon 11:25:05 39.0000 -77.3500 360° North 225 259 4,000  Level Potomac TRACON
Mon 11:25:59 39.0500 -77.3500 360° North 221 254 4,000  Level Potomac TRACON
Mon 11:27:00 39.1167 -77.3500 360° North 222 255 4,000 -496 Level Potomac TRACON
Mon 11:28:00 39.1667 -77.3500 360° North 217 250 3,000 -950 Descending Potomac TRACON
Mon 11:29:00 39.2000 -77.3833 322° Northwest 215 247 2,100 -500 Descending Potomac TRACON
Mon 11:30:00 39.1667 -77.4333 229° Southwest 193 222 2,000 -100 Descending Potomac TRACON
Mon 11:31:00 39.1167 -77.4333 180° South 188 216 1,900 -150 Descending Potomac TRACON
Mon 11:32:00 39.0667 -77.4333 180° South 177 204 1,700 -100 Descending Potomac TRACON
Mon 11:33:00 39.0167 -77.4333 180° South 176 203 1,700 -421 Level Potomac TRACON
Mon 11:33:54 38.9833 -77.4333 180° South 143 165 900 -889 Descending Potomac TRACON
Mon 11:35:00 38.9474 -77.4599 191° South  Level Estimated
Mon 11:42:00 38.9474 -77.4599 191° South  Level Estimated
Mon 11:43:00 38.9474 -77.4599 191° South  Level Estimated
Mon 11:44:00 38.9474 -77.4599 191° South  Level Estimated

Login

Don't have an account? Register now (free) for customized features, flight alerts, and more!